createdAt,value
2022-12-26T00:00:13.710Z,92.60
2022-12-26T00:02:59.920Z,92.50
2022-12-26T00:05:45.731Z,92.50
2022-12-26T00:08:31.743Z,92.50
2022-12-26T00:11:17.697Z,92.60
2022-12-26T00:14:11.521Z,92.70
2022-12-26T00:16:57.613Z,92.60
2022-12-26T00:19:43.536Z,92.60
2022-12-26T00:22:30.116Z,92.60
2022-12-26T00:25:16.402Z,92.70
2022-12-26T00:28:02.222Z,92.60
2022-12-26T00:30:48.279Z,92.50
2022-12-26T00:33:35.817Z,92.30
2022-12-26T00:36:23.057Z,92.20
2022-12-26T00:39:11.019Z,92.20
2022-12-26T00:41:57.086Z,92.40
2022-12-26T00:44:43.047Z,92.30
2022-12-26T00:47:29.095Z,92.00
2022-12-26T00:50:15.828Z,92.10
2022-12-26T00:53:01.514Z,92.30
2022-12-26T00:55:49.433Z,92.20
2022-12-26T00:58:35.619Z,92.20
2022-12-26T01:01:22.892Z,92.30
2022-12-26T01:04:08.809Z,92.30
2022-12-26T01:06:54.972Z,92.20
2022-12-26T01:09:41.292Z,92.20
2022-12-26T01:12:27.568Z,92.20
2022-12-26T01:15:13.541Z,92.00
2022-12-26T01:18:00.422Z,92.00
2022-12-26T01:20:46.451Z,92.00
2022-12-26T01:23:32.519Z,91.90
2022-12-26T01:26:20.213Z,91.70
2022-12-26T01:29:06.149Z,91.50
2022-12-26T01:31:52.275Z,91.50
2022-12-26T01:34:38.177Z,91.30
2022-12-26T01:37:24.538Z,91.40
2022-12-26T01:40:11.854Z,91.30
2022-12-26T01:42:57.955Z,91.60
2022-12-26T01:45:50.790Z,91.40
2022-12-26T01:48:36.559Z,91.40
2022-12-26T01:51:24.349Z,91.40
2022-12-26T01:54:39.277Z,91.30
2022-12-26T01:57:19.772Z,91.30
2022-12-26T02:00:06.410Z,91.20
2022-12-26T02:03:18.219Z,91.30
2022-12-26T02:06:04.043Z,91.20
2022-12-26T02:08:49.840Z,91.40
2022-12-26T02:11:40.985Z,91.50
2022-12-26T02:14:26.862Z,91.80
2022-12-26T02:17:12.796Z,91.70
2022-12-26T02:20:02.088Z,91.70
2022-12-26T02:22:48.193Z,92.00
2022-12-26T02:25:55.253Z,91.80
2022-12-26T02:28:51.980Z,92.10
2022-12-26T02:32:00.988Z,92.50
2022-12-26T02:34:59.398Z,92.80
2022-12-26T02:37:55.987Z,92.80
2022-12-26T02:40:51.065Z,92.70
2022-12-26T02:44:31.407Z,92.80
2022-12-26T02:47:19.921Z,92.70
2022-12-26T02:50:47.563Z,92.50
2022-12-26T02:54:11.174Z,92.50
2022-12-26T02:57:17.163Z,92.80
2022-12-26T03:00:25.266Z,92.90
2022-12-26T03:03:30.691Z,92.90
2022-12-26T03:06:42.785Z,92.80
2022-12-26T03:09:49.299Z,93.10
2022-12-26T03:13:12.733Z,92.80
2022-12-26T03:16:17.426Z,92.50
2022-12-26T03:19:06.199Z,92.50
2022-12-26T03:21:52.933Z,92.40
2022-12-26T03:25:01.641Z,92.30
2022-12-26T03:27:48.183Z,92.30
2022-12-26T03:30:49.273Z,92.20
2022-12-26T03:33:55.513Z,92.30
2022-12-26T03:36:49.132Z,92.20
2022-12-26T03:39:59.395Z,92.30
2022-12-26T03:43:18.637Z,92.30
2022-12-26T03:46:38.624Z,92.10
2022-12-26T03:49:47.481Z,92.20
2022-12-26T03:52:55.075Z,92.20
2022-12-26T03:56:03.574Z,92.30
2022-12-26T03:59:27.925Z,92.40
2022-12-26T04:02:34.129Z,92.20
2022-12-26T04:05:38.989Z,92.10
2022-12-26T04:08:45.331Z,91.90
2022-12-26T04:11:50.846Z,91.80
2022-12-26T04:14:59.242Z,91.70
2022-12-26T04:18:14.538Z,91.70
2022-12-26T04:21:06.687Z,91.90
2022-12-26T04:24:11.371Z,91.80
2022-12-26T04:27:19.368Z,91.70
2022-12-26T04:30:23.808Z,91.70
2022-12-26T04:33:42.312Z,91.80
2022-12-26T04:36:56.012Z,91.90
2022-12-26T04:40:03.010Z,92.00
2022-12-26T04:43:47.202Z,92.40
2022-12-26T04:46:13.987Z,92.20
2022-12-26T04:49:19.287Z,92.00
2022-12-26T04:52:06.867Z,91.90
2022-12-26T04:54:52.866Z,91.70
2022-12-26T04:57:39.007Z,91.60
2022-12-26T05:00:25.877Z,91.60
2022-12-26T05:03:33.867Z,91.50
2022-12-26T05:06:38.875Z,91.50
2022-12-26T05:09:34.261Z,91.60
2022-12-26T05:12:20.556Z,91.70
2022-12-26T05:15:06.752Z,91.80
2022-12-26T05:18:11.277Z,91.80
2022-12-26T05:21:35.821Z,91.80
2022-12-26T05:24:40.234Z,91.70
2022-12-26T05:27:48.487Z,91.70
2022-12-26T05:30:34.187Z,91.80
2022-12-26T05:33:38.876Z,91.80
2022-12-26T05:36:26.062Z,91.80
2022-12-26T05:39:12.111Z,91.80
2022-12-26T05:41:58.503Z,91.90
2022-12-26T05:44:44.933Z,91.90
2022-12-26T05:47:30.975Z,91.90
2022-12-26T05:50:17.129Z,91.90
2022-12-26T05:53:04.036Z,91.90
2022-12-26T05:55:49.745Z,91.90
2022-12-26T05:58:35.861Z,92.00
2022-12-26T06:01:22.659Z,92.10
2022-12-26T06:04:08.367Z,92.20
2022-12-26T06:06:57.382Z,92.30
2022-12-26T06:09:43.264Z,92.30
2022-12-26T06:12:29.380Z,92.30
2022-12-26T06:15:15.497Z,92.30
2022-12-26T06:18:01.353Z,92.40
2022-12-26T06:20:47.646Z,92.30
2022-12-26T06:23:34.458Z,92.30
2022-12-26T06:26:20.244Z,92.20
2022-12-26T06:29:06.314Z,92.30
2022-12-26T06:31:52.111Z,92.20
2022-12-26T06:34:38.067Z,92.30
2022-12-26T06:37:25.114Z,92.30
2022-12-26T06:40:11.178Z,92.30
2022-12-26T06:42:56.962Z,92.20
2022-12-26T06:45:42.837Z,92.20
2022-12-26T06:48:29.167Z,92.10
2022-12-26T06:51:16.718Z,92.10
2022-12-26T06:54:03.166Z,92.10
2022-12-26T06:56:48.920Z,92.20
2022-12-26T06:59:35.035Z,92.20
2022-12-26T07:02:21.235Z,92.20
2022-12-26T07:05:07.143Z,92.10
2022-12-26T07:07:53.683Z,92.10
2022-12-26T07:10:39.735Z,92.10
2022-12-26T07:13:25.747Z,92.10
2022-12-26T07:16:12.261Z,92.10
2022-12-26T07:18:58.512Z,92.20
2022-12-26T07:21:44.988Z,92.20
2022-12-26T07:24:31.127Z,92.10
2022-12-26T07:27:16.989Z,92.10
2022-12-26T07:30:03.179Z,92.10
2022-12-26T07:32:49.527Z,92.10
2022-12-26T07:35:35.459Z,92.20
2022-12-26T07:38:21.630Z,92.10
2022-12-26T07:41:26.155Z,92.20
2022-12-26T07:44:13.077Z,92.20
2022-12-26T07:46:59.321Z,92.20
2022-12-26T07:49:45.163Z,92.00
2022-12-26T07:52:31.198Z,91.70
2022-12-26T07:55:17.494Z,91.30
2022-12-26T07:58:03.431Z,91.00
2022-12-26T08:00:49.918Z,90.80
2022-12-26T08:03:36.715Z,90.90
2022-12-26T08:06:26.417Z,90.60
2022-12-26T08:09:15.859Z,90.00
2022-12-26T08:12:02.053Z,88.70
2022-12-26T08:14:48.122Z,88.60
2022-12-26T08:17:33.861Z,88.00
2022-12-26T08:20:19.917Z,88.40
2022-12-26T08:23:06.029Z,87.90
2022-12-26T08:25:52.129Z,88.00
2022-12-26T08:28:38.318Z,88.10
2022-12-26T08:34:11.613Z,89.00
2022-12-26T08:36:57.702Z,89.50
2022-12-26T08:39:43.797Z,89.40
2022-12-26T08:42:29.411Z,88.70
2022-12-26T08:45:15.534Z,88.70
2022-12-26T08:48:02.998Z,89.00
2022-12-26T08:50:49.604Z,89.40
2022-12-26T08:53:37.124Z,90.00
2022-12-26T08:56:27.244Z,90.20
2022-12-26T08:59:13.324Z,90.30
2022-12-26T09:01:59.245Z,90.30
2022-12-26T09:04:46.078Z,90.40
2022-12-26T09:07:31.994Z,90.40
2022-12-26T09:10:18.029Z,90.00
2022-12-26T09:13:03.954Z,90.00
2022-12-26T09:15:49.917Z,89.70
2022-12-26T09:18:36.467Z,90.00
2022-12-26T09:21:22.651Z,89.50
2022-12-26T09:24:11.192Z,89.80
2022-12-26T09:26:57.050Z,89.50
2022-12-26T09:29:43.030Z,87.90
2022-12-26T09:32:32.455Z,87.70
2022-12-26T09:35:18.223Z,87.30
2022-12-26T09:38:04.154Z,86.30
2022-12-26T09:41:07.185Z,86.80
2022-12-26T09:43:59.287Z,85.50
2022-12-26T09:47:09.467Z,85.00
2022-12-26T09:49:57.723Z,84.50
2022-12-26T09:52:54.381Z,83.90
2022-12-26T09:55:56.032Z,82.20
2022-12-26T09:58:47.634Z,80.90
2022-12-26T10:01:35.715Z,80.20
2022-12-26T10:04:28.857Z,78.20
2022-12-26T10:07:18.565Z,76.30
2022-12-26T10:10:10.503Z,76.00
2022-12-26T10:13:00.375Z,74.10
2022-12-26T10:15:56.389Z,72.90
2022-12-26T10:18:52.650Z,70.40
2022-12-26T10:21:46.118Z,69.00
2022-12-26T10:24:34.101Z,67.80
2022-12-26T10:27:20.284Z,65.90
2022-12-26T10:30:07.478Z,66.30
2022-12-26T10:32:58.191Z,67.30
2022-12-26T10:35:45.352Z,68.50
2022-12-26T10:38:36.159Z,67.60
2022-12-26T10:41:37.823Z,67.80
2022-12-26T10:44:27.880Z,65.30
2022-12-26T10:47:13.961Z,64.60
2022-12-26T10:50:00.247Z,64.10
2022-12-26T10:52:46.005Z,64.40
2022-12-26T10:55:35.028Z,65.30
2022-12-26T10:58:28.818Z,67.10
2022-12-26T11:01:29.816Z,67.60
2022-12-26T11:04:53.090Z,67.70
2022-12-26T11:07:46.615Z,69.60
2022-12-26T11:10:33.139Z,71.10
2022-12-26T11:13:21.506Z,72.40
2022-12-26T11:16:08.310Z,71.60
2022-12-26T11:18:54.674Z,72.40
2022-12-26T11:21:40.321Z,72.40
2022-12-26T11:24:26.402Z,73.50
2022-12-26T11:27:20.398Z,73.60
2022-12-26T11:30:16.266Z,74.00
2022-12-26T11:33:34.755Z,74.20
2022-12-26T11:36:22.787Z,74.60
2022-12-26T11:39:19.744Z,75.60
2022-12-26T11:42:09.485Z,75.80
2022-12-26T11:44:56.611Z,75.90
2022-12-26T11:47:44.859Z,76.80
2022-12-26T11:50:31.185Z,77.20
2022-12-26T11:53:18.801Z,77.00
2022-12-26T11:56:05.625Z,78.40
2022-12-26T11:59:06.467Z,77.60
2022-12-26T12:02:10.956Z,78.50
2022-12-26T12:04:59.672Z,79.00
2022-12-26T12:07:52.212Z,80.30
2022-12-26T12:10:53.065Z,82.10
2022-12-26T12:13:39.106Z,83.90
2022-12-26T12:16:45.503Z,84.50
2022-12-26T12:19:34.344Z,85.30
2022-12-26T12:22:20.388Z,87.80
2022-12-26T12:25:19.003Z,89.00
2022-12-26T12:28:23.729Z,90.80
2022-12-26T12:31:09.787Z,91.80
2022-12-26T12:34:16.048Z,93.20
2022-12-26T12:37:11.560Z,94.70
2022-12-26T12:40:00.616Z,96.00
2022-12-26T12:42:46.657Z,96.70
2022-12-26T12:45:42.081Z,97.00
2022-12-26T12:48:40.238Z,97.30
2022-12-26T12:51:34.448Z,97.80
2022-12-26T12:54:37.875Z,98.00
2022-12-26T12:57:31.414Z,98.60
2022-12-26T13:00:21.888Z,98.50
2022-12-26T13:03:26.672Z,98.60
2022-12-26T13:06:15.469Z,98.70
2022-12-26T13:09:12.931Z,98.80
2022-12-26T13:12:02.446Z,98.70
2022-12-26T13:14:50.876Z,98.90
2022-12-26T13:17:57.031Z,99.10
2022-12-26T13:20:44.990Z,99.40
2022-12-26T13:23:56.067Z,99.80
2022-12-26T13:26:46.789Z,99.90
2022-12-26T13:29:36.267Z,99.90
2022-12-26T13:32:27.034Z,99.90
2022-12-26T13:35:31.882Z,99.90
2022-12-26T13:38:18.479Z,99.90
2022-12-26T13:41:23.151Z,99.90
2022-12-26T13:44:17.988Z,99.90
2022-12-26T13:47:04.166Z,99.90
2022-12-26T13:49:49.911Z,99.90
2022-12-26T13:52:40.010Z,99.90
2022-12-26T13:55:31.725Z,99.90
2022-12-26T13:58:20.625Z,99.90
2022-12-26T14:01:26.688Z,99.90
2022-12-26T14:04:19.038Z,99.90
2022-12-26T14:07:20.198Z,99.90
2022-12-26T14:10:06.247Z,99.90
2022-12-26T14:13:13.888Z,99.90
2022-12-26T14:16:04.763Z,99.90
2022-12-26T14:18:50.479Z,99.90
2022-12-26T14:21:57.739Z,99.90
2022-12-26T14:25:00.443Z,99.90
2022-12-26T14:27:51.198Z,99.90
2022-12-26T14:30:49.665Z,99.90
2022-12-26T14:33:44.174Z,99.90
2022-12-26T14:36:30.114Z,99.90
2022-12-26T14:39:22.020Z,99.90
2022-12-26T14:42:26.755Z,99.90
2022-12-26T14:45:27.825Z,99.90
2022-12-26T14:48:16.970Z,99.90
2022-12-26T14:51:02.919Z,99.90
2022-12-26T14:54:07.949Z,99.90
2022-12-26T14:56:54.100Z,99.90
2022-12-26T14:59:40.031Z,99.90
2022-12-26T15:02:31.267Z,99.90
2022-12-26T15:05:20.077Z,99.90
2022-12-26T15:08:12.143Z,99.90
2022-12-26T15:11:10.602Z,99.90
2022-12-26T15:14:25.958Z,99.90
2022-12-26T15:17:30.658Z,99.90
2022-12-26T15:20:35.279Z,99.90
2022-12-26T15:23:30.281Z,99.90
2022-12-26T15:26:26.039Z,99.90
2022-12-26T15:29:14.783Z,99.90
2022-12-26T15:32:14.499Z,99.90
2022-12-26T15:35:19.222Z,99.90
2022-12-26T15:38:31.994Z,99.90
2022-12-26T15:41:20.683Z,99.90
2022-12-26T15:44:25.622Z,99.90
2022-12-26T15:47:17.835Z,99.90
2022-12-26T15:50:03.963Z,99.90
2022-12-26T15:52:50.175Z,99.90
2022-12-26T15:55:39.346Z,99.90
2022-12-26T15:58:36.073Z,99.90
2022-12-26T16:01:42.291Z,99.90
2022-12-26T16:04:40.622Z,99.90
2022-12-26T16:07:39.363Z,99.90
2022-12-26T16:10:24.974Z,99.90
2022-12-26T16:13:15.020Z,99.90
2022-12-26T16:16:01.277Z,99.90
2022-12-26T16:18:47.016Z,99.90
2022-12-26T16:21:51.953Z,99.90
2022-12-26T16:24:39.251Z,99.90
2022-12-26T16:27:25.759Z,99.90
2022-12-26T16:30:17.770Z,99.90
2022-12-26T16:33:04.374Z,99.90
2022-12-26T16:35:51.621Z,99.90
2022-12-26T16:38:39.928Z,99.90
2022-12-26T16:41:30.945Z,99.90
2022-12-26T16:44:44.447Z,99.90
2022-12-26T16:47:31.877Z,99.90
2022-12-26T16:50:19.473Z,99.90
2022-12-26T16:53:10.203Z,99.90
2022-12-26T16:56:14.979Z,99.90
2022-12-26T16:59:04.823Z,99.90
2022-12-26T17:01:54.493Z,99.90
2022-12-26T17:04:40.675Z,99.90
2022-12-26T17:07:27.729Z,99.90
2022-12-26T17:10:18.745Z,99.90
2022-12-26T17:13:06.984Z,99.90
2022-12-26T17:15:57.597Z,99.90
2022-12-26T17:18:50.571Z,99.90
2022-12-26T17:21:36.946Z,99.90
2022-12-26T17:24:26.416Z,99.90
2022-12-26T17:27:17.950Z,99.90
2022-12-26T17:30:22.117Z,99.90
2022-12-26T17:33:25.625Z,99.90
2022-12-26T17:39:21.644Z,99.90
2022-12-26T17:42:07.402Z,99.90
2022-12-26T17:44:53.281Z,99.90
2022-12-26T17:47:39.314Z,99.90
2022-12-26T17:50:34.012Z,99.90
2022-12-26T17:53:27.472Z,99.90
2022-12-26T17:56:15.171Z,99.90
2022-12-26T17:59:01.075Z,99.90
2022-12-26T18:01:47.277Z,99.90
2022-12-26T18:04:33.179Z,99.90
2022-12-26T18:07:30.906Z,99.90
2022-12-26T18:10:18.042Z,99.90
2022-12-26T18:13:04.073Z,99.90
2022-12-26T18:15:50.884Z,99.90
2022-12-26T18:18:38.202Z,99.90
2022-12-26T18:21:23.991Z,99.90
2022-12-26T18:24:10.183Z,99.90
2022-12-26T18:26:56.096Z,99.90
2022-12-26T18:29:42.947Z,99.90
2022-12-26T18:32:30.548Z,99.90
2022-12-26T18:35:17.007Z,99.90
2022-12-26T18:38:03.353Z,99.90
2022-12-26T18:40:52.928Z,99.90
2022-12-26T18:43:39.597Z,99.90
2022-12-26T18:46:26.406Z,99.90
2022-12-26T18:49:12.915Z,99.90
2022-12-26T18:51:58.993Z,99.90
2022-12-26T18:54:44.885Z,99.90
2022-12-26T18:57:30.969Z,99.90
2022-12-26T19:00:17.979Z,99.90
2022-12-26T19:03:03.994Z,99.90
2022-12-26T19:05:49.986Z,99.90
2022-12-26T19:08:36.046Z,99.90
2022-12-26T19:11:22.319Z,99.90
2022-12-26T19:14:09.390Z,99.90
2022-12-26T19:16:55.347Z,99.90
2022-12-26T19:19:41.787Z,99.90
2022-12-26T19:22:27.876Z,99.90
2022-12-26T19:25:14.420Z,99.90
2022-12-26T19:28:00.290Z,99.90
2022-12-26T19:30:46.773Z,99.90
2022-12-26T19:33:32.396Z,99.90
2022-12-26T19:36:18.654Z,99.90
2022-12-26T19:39:04.926Z,99.90
2022-12-26T19:41:50.752Z,99.90
2022-12-26T19:44:36.659Z,99.90
2022-12-26T19:47:23.143Z,99.90
2022-12-26T19:50:10.303Z,99.90
2022-12-26T19:52:56.207Z,99.90
2022-12-26T19:55:42.199Z,99.90
2022-12-26T19:58:31.442Z,99.90
2022-12-26T20:01:18.982Z,99.90
2022-12-26T20:04:06.961Z,99.90
2022-12-26T20:06:52.476Z,99.90
2022-12-26T20:09:38.465Z,99.90
2022-12-26T20:12:24.577Z,99.90
2022-12-26T20:15:10.644Z,99.90
2022-12-26T20:17:56.447Z,99.90
2022-12-26T20:20:42.396Z,99.40
2022-12-26T20:23:28.658Z,99.50
2022-12-26T20:26:15.906Z,99.20
2022-12-26T20:29:02.091Z,99.10
2022-12-26T20:31:48.262Z,99.10
2022-12-26T20:34:34.059Z,98.90
2022-12-26T20:37:20.116Z,98.80
2022-12-26T20:40:06.458Z,98.60
2022-12-26T20:42:52.284Z,98.40
2022-12-26T20:45:38.385Z,98.20
2022-12-26T20:48:24.378Z,98.00
2022-12-26T20:51:12.160Z,98.30
2022-12-26T20:53:58.243Z,98.10
2022-12-26T20:56:44.957Z,97.90
2022-12-26T20:59:30.859Z,97.70
2022-12-26T21:02:17.211Z,97.60
2022-12-26T21:05:03.618Z,97.80
2022-12-26T21:07:49.367Z,98.30
2022-12-26T21:10:35.511Z,99.90
2022-12-26T21:13:21.614Z,99.90
2022-12-26T21:16:09.945Z,99.90
2022-12-26T21:18:56.619Z,99.90
2022-12-26T21:21:44.490Z,99.90
2022-12-26T21:24:31.429Z,99.90
2022-12-26T21:27:17.245Z,99.90
2022-12-26T21:30:04.066Z,99.90
2022-12-26T21:32:49.775Z,99.90
2022-12-26T21:35:39.023Z,99.90
2022-12-26T21:38:27.675Z,99.90
2022-12-26T21:41:13.475Z,99.90
2022-12-26T21:43:59.389Z,99.90
2022-12-26T21:46:45.461Z,99.90
2022-12-26T21:49:31.391Z,99.90
2022-12-26T21:52:17.391Z,99.90
2022-12-26T21:55:22.360Z,99.90
2022-12-26T21:58:08.210Z,99.90
2022-12-26T22:00:54.143Z,99.90
2022-12-26T22:03:58.697Z,99.90
2022-12-26T22:06:44.452Z,99.90
2022-12-26T22:09:30.449Z,99.90
2022-12-26T22:12:34.958Z,99.90
2022-12-26T22:15:39.707Z,99.90
2022-12-26T22:18:25.446Z,99.90
2022-12-26T22:21:15.521Z,99.90
2022-12-26T22:24:02.106Z,99.90
2022-12-26T22:26:48.600Z,99.90
2022-12-26T22:29:34.647Z,99.90
2022-12-26T22:32:20.702Z,99.90
2022-12-26T22:35:06.870Z,99.90
2022-12-26T22:37:52.684Z,99.90
2022-12-26T22:40:38.787Z,99.90
2022-12-26T22:43:25.070Z,99.90
2022-12-26T22:46:11.601Z,99.90
2022-12-26T22:48:57.685Z,99.90
2022-12-26T22:51:43.687Z,99.90
2022-12-26T22:54:29.705Z,99.90
2022-12-26T22:57:15.919Z,99.90
2022-12-26T23:00:09.124Z,99.90
2022-12-26T23:02:55.725Z,99.90
2022-12-26T23:05:42.291Z,99.90
2022-12-26T23:08:28.328Z,99.90
2022-12-26T23:11:14.942Z,99.90
2022-12-26T23:14:01.269Z,99.90
2022-12-26T23:16:53.407Z,99.90
2022-12-26T23:20:05.691Z,99.90
2022-12-26T23:22:51.990Z,99.90
2022-12-26T23:25:38.952Z,99.90
2022-12-26T23:28:43.359Z,99.90
2022-12-26T23:31:29.247Z,99.90
2022-12-26T23:34:15.254Z,99.90
2022-12-26T23:37:01.200Z,99.90
2022-12-26T23:39:47.482Z,99.90
2022-12-26T23:42:33.490Z,99.90
2022-12-26T23:45:19.330Z,99.90
2022-12-26T23:48:05.304Z,99.90
2022-12-26T23:51:00.067Z,99.90
2022-12-26T23:53:45.783Z,99.90
2022-12-26T23:56:31.825Z,99.90
2022-12-26T23:59:18.177Z,99.90
